Time;durP1;ratioP1;P1;durP2;ratioP2;P2;SDS_P1;SDS_P2;PMS_P1;PMS_P2;Temp;Humidity;BMP_temperature;BMP_pressure;BME280_temperature;BME280_humidity;BME280_pressure;Samples;Min_cycle;Max_cycle;Signal;HPM_P1;HPM_P2
2021/05/02 00:03:32;;;;;;;;;;;;;;;;;;;;;
2021/05/02 00:06:05;;;;;;;45.30;41.87;;;3.90;99.90;;;;;;6123693;23;20409;-82
2021/05/02 00:08:45;;;;;;;56.97;53.70;;;4.00;99.90;;;;;;6135825;23;20493;-82
2021/05/02 00:11:44;;;;;;;49.50;46.50;;;4.00;99.90;;;;;;6125114;23;20462;-82
2021/05/02 00:17:09;;;;;;;63.00;59.17;;;3.70;99.90;;;;;;6123606;23;20459;-82
2021/05/02 00:20:10;;;;;;;;;;;;;;;;;;;;;
2021/05/02 00:23:13;;;;;;;71.13;67.53;;;3.70;99.90;;;;;;6086209;23;20417;-82
2021/05/02 00:26:03;;;;;;;;;;;;;;;;;;;;;
2021/05/02 00:29:10;;;;;;;60.70;57.57;;;3.60;99.90;;;;;;6127089;23;20421;-82
2021/05/02 00:31:56;;;;;;;62.17;58.67;;;3.60;99.90;;;;;;6154440;23;20501;-82
2021/05/02 00:34:49;;;;;;;57.70;54.37;;;3.50;99.90;;;;;;6155636;23;20893;-82
2021/05/02 00:37:26;;;;;;;75.60;71.33;;;3.50;99.90;;;;;;6147783;23;20413;-82
2021/05/02 00:40:10;;;;;;;82.33;77.73;;;3.50;99.90;;;;;;6165506;23;20414;-82
2021/05/02 00:43:07;;;;;;;;;;;;;;;;;;;;;
2021/05/02 00:46:11;;;;;;;;;;;;;;;;;;;;;
2021/05/02 00:52:16;;;;;;;86.40;82.17;;;3.20;99.90;;;;;;6154305;23;20413;-82
2021/05/02 00:58:11;;;;;;;87.88;83.07;;;2.90;99.90;;;;;;5988288;23;20474;-82
2021/05/02 01:01:13;;;;;;;;;;;;;;;;;;;;;
2021/05/02 01:04:03;;;;;;;87.23;82.77;;;2.80;99.90;;;;;;5887263;24;20484;-81
2021/05/02 01:06:44;;;;;;;;;;;;;;;;;;;;;
2021/05/02 01:09:21;;;;;;;83.63;79.43;;;2.80;99.90;;;;;;5996055;23;20418;-82
2021/05/02 01:12:02;;;;;;;;;;;;;;;;;;;;;
2021/05/02 01:14:55;;;;;;;71.65;68.05;;;2.90;99.90;;;;;;6077288;23;20410;-81
2021/05/02 01:37:59;;;;;;;;;;;;;;;;;;;;;
2021/05/02 01:41:02;;;;;;;82.10;77.03;;;3.90;99.90;;;;;;5093793;27;20442;-83
2021/05/02 01:46:58;;;;;;;67.97;64.57;;;3.80;99.90;;;;;;5101201;27;20447;-82
2021/05/02 01:49:29;;;;;;;70.30;66.50;;;3.80;99.90;;;;;;5151644;27;20492;-82
2021/05/02 01:51:58;;;;;;;74.07;70.37;;;3.90;99.90;;;;;;5151332;27;21033;-81
2021/05/02 01:54:59;;;;;;;;;;;;;;;;;;;;;
2021/05/02 01:57:30;;;;;;;64.40;60.70;;;4.30;99.90;;;;;;5150587;27;20849;-82
2021/05/02 02:00:03;;;;;;;63.43;59.83;;;4.40;99.90;;;;;;5151313;27;20445;-82
2021/05/02 02:02:41;;;;;;;;;;;;;;;;;;;;;
2021/05/02 02:05:42;;;;;;;56.17;52.87;;;4.80;99.90;;;;;;5150937;27;20450;-82
2021/05/02 02:08:14;;;;;;;45.33;42.73;;;5.00;99.90;;;;;;5066970;28;20477;-82
2021/05/02 02:11:41;;;;;;;;;;;;;;;;;;;;;
2021/05/02 02:24:14;;;;;;;36.60;33.27;;;5.30;99.90;;;;;;4948821;28;20213;-83
2021/05/02 02:27:33;;;;;;;;;;;;;;;;;;;;;
2021/05/02 03:14:47;;;;;;;35.80;32.40;;;5.70;99.90;;;;;;4991069;28;20461;-83
2021/05/02 03:31:32;;;;;;;48.40;43.87;;;5.80;99.90;;;;;;5005791;28;20462;-84
2021/05/02 03:34:51;;;;;;;;;;;;;;;;;;;;;
2021/05/02 03:38:01;;;;;;;;;;;;;;;;;;;;;
2021/05/02 03:41:04;;;;;;;52.47;46.97;;;5.80;99.90;;;;;;5031735;28;20528;-83
2021/05/02 04:09:09;;;;;;;35.53;32.20;;;5.80;99.90;;;;;;4810904;28;20458;-82
2021/05/02 04:12:13;;;;;;;38.53;35.23;;;5.80;99.90;;;;;;4980360;28;20454;-82
2021/05/02 04:18:45;;;;;;;;;;;;;;;;;;;;;
2021/05/02 04:27:54;;;;;;;25.43;22.90;;;5.80;99.90;;;;;;5090608;28;20559;-86
2021/05/02 04:30:24;;;;;;;19.17;17.27;;;5.90;99.90;;;;;;5113996;28;20444;-82
2021/05/02 04:32:53;;;;;;;19.90;17.20;;;5.90;99.90;;;;;;5113167;28;20979;-82
2021/05/02 04:35:46;;;;;;;19.20;17.00;;;5.80;99.90;;;;;;5114121;28;21022;-82
2021/05/02 04:41:35;;;;;;;;;;;;;;;;;;;;;
2021/05/02 04:44:31;;;;;;;16.87;15.17;;;5.80;99.90;;;;;;5113659;28;20442;-82
2021/05/02 04:47:33;;;;;;;59.87;18.40;;;5.90;99.90;;;;;;4972228;28;20647;-83
2021/05/02 05:00:30;;;;;;;;;;;;;;;;;;;;;
2021/05/02 05:05:45;;;;;;;22.23;8.33;;;6.10;99.90;;;;;;5047982;28;20435;-79
2021/05/02 05:15:35;;;;;;;;;;;;;;;;;;;;;
2021/05/02 05:18:42;;;;;;;;;;;;;;;;;;;;;
2021/05/02 05:21:15;;;;;;;15.23;6.80;;;6.30;99.90;;;;;;4931244;29;20535;-82
2021/05/02 05:24:36;;;;;;;;;;;;;;;;;;;;;
2021/05/02 05:31:17;;;;;;;19.30;7.33;;;6.30;99.90;;;;;;5050137;28;20948;-83
2021/05/02 05:34:31;;;;;;;12.30;5.53;;;6.30;99.90;;;;;;5072790;28;20815;-83
2021/05/02 05:43:58;;;;;;;16.60;7.23;;;6.30;99.90;;;;;;4887488;29;20986;-83
2021/05/02 05:50:13;;;;;;;13.97;5.73;;;6.30;99.90;;;;;;4855839;29;20464;-82
2021/05/02 05:52:43;;;;;;;11.60;4.93;;;6.30;96.60;;;;;;4999049;28;20539;-81
2021/05/02 05:55:13;;;;;;;11.60;4.73;;;6.20;93.30;;;;;;5087448;28;20454;-81
2021/05/02 05:57:45;;;;;;;17.60;7.50;;;6.30;93.70;;;;;;5090374;28;20453;-82
2021/05/02 06:00:13;;;;;;;16.53;6.53;;;6.40;93.70;;;;;;5072355;28;20446;-82
2021/05/02 06:02:44;;;;;;;33.77;6.00;;;6.40;96.80;;;;;;5072363;28;21018;-81
2021/05/02 06:05:13;;;;;;;12.20;5.07;;;6.60;94.00;;;;;;5072323;28;20456;-81
2021/05/02 06:07:40;;;;;;;13.50;4.87;;;6.50;90.80;;;;;;5072396;28;20466;-81
2021/05/02 06:10:08;;;;;;;15.90;7.20;;;6.60;91.10;;;;;;5078267;28;20965;-82
2021/05/02 06:12:41;;;;;;;16.47;5.30;;;6.70;82.90;;;;;;5090858;28;20486;-82
2021/05/02 06:15:21;;;;;;;12.30;6.10;;;6.90;88.70;;;;;;5092205;28;20536;-82
2021/05/02 06:17:56;;;;;;;12.10;4.90;;;7.10;86.70;;;;;;5092546;28;20962;-82
2021/05/02 06:20:23;;;;;;;12.13;4.20;;;7.10;76.10;;;;;;5092233;28;20446;-82
2021/05/02 06:22:51;;;;;;;10.73;3.40;;;7.30;74.20;;;;;;5094802;28;20455;-81
2021/05/02 06:25:19;;;;;;;12.03;4.70;;;7.40;68.80;;;;;;5095730;28;20787;-82
2021/05/02 06:27:49;;;;;;;12.20;4.30;;;7.50;66.10;;;;;;5095066;28;20800;-82
2021/05/02 06:31:01;;;;;;;14.00;4.10;;;7.40;61.60;;;;;;5095843;28;20442;-83
2021/05/02 06:33:46;;;;;;;11.40;4.23;;;7.50;56.40;;;;;;5089106;28;20482;-83
2021/05/02 06:36:21;;;;;;;13.57;4.47;;;7.80;64.80;;;;;;5095934;28;20484;-81
2021/05/02 06:39:16;;;;;;;;;;;;;;;;;;;;;
2021/05/02 06:41:48;;;;;;;9.83;3.13;;;7.70;51.60;;;;;;5094899;28;20514;-83
2021/05/02 06:44:24;;;;;;;10.70;3.27;;;7.70;53.80;;;;;;5095589;28;20969;-82
2021/05/02 06:47:06;;;;;;;10.60;3.43;;;7.90;50.60;;;;;;5095940;28;20459;-82
2021/05/02 06:53:22;;;;;;;12.17;2.50;;;8.10;52.30;;;;;;5093902;28;20548;-84
2021/05/02 06:56:12;;;;;;;9.60;2.00;;;8.00;47.90;;;;;;5075185;28;20507;-83
2021/05/02 07:02:00;;;;;;;12.13;3.33;;;8.20;46.10;;;;;;5093503;28;20488;-83
2021/05/02 07:08:15;;;;;;;10.30;3.20;;;8.30;43.40;;;;;;5095649;28;20487;-83
2021/05/02 07:10:55;;;;;;;;;;;;;;;;;;;;;
2021/05/02 07:20:17;;;;;;;10.07;2.50;;;8.90;29.50;;;;;;5075032;28;20453;-82
2021/05/02 07:23:12;;;;;;;11.17;2.53;;;8.60;26.80;;;;;;5078568;28;20544;-83
2021/05/02 07:29:14;;;;;;;;;;;;;;;;;;;;;
2021/05/02 07:38:29;;;;;;;;;;;;;;;;;;;;;
2021/05/02 07:44:53;;;;;;;;;;;;;;;;;;;;;
2021/05/02 07:47:30;;;;;;;23.27;3.10;;;9.20;20.70;;;;;;4986465;28;20462;-83
2021/05/02 07:50:07;;;;;;;10.87;2.50;;;8.60;24.00;;;;;;5093551;28;20458;-82
2021/05/02 07:52:43;;;;;;;9.80;2.43;;;8.20;24.70;;;;;;5093014;28;20932;-82
2021/05/02 07:56:08;;;;;;;11.30;2.80;;;8.20;26.50;;;;;;5093493;28;20469;-82
2021/05/02 07:58:57;;;;;;;11.87;2.40;;;8.60;26.00;;;;;;5011447;28;21041;-83
2021/05/02 08:01:57;;;;;;;9.83;2.50;;;9.30;20.90;;;;;;5077895;28;20523;-82
2021/05/02 08:04:39;;;;;;;11.20;2.90;;;9.80;18.90;;;;;;5093392;28;20490;-83
2021/05/02 08:07:11;;;;;;;14.60;3.10;;;10.70;17.70;;;;;;5092919;28;20456;-83
2021/05/02 08:10:24;;;;;;;;;;;;;;;;;;;;;
2021/05/02 08:13:20;;;;;;;14.50;3.43;;;10.00;16.30;;;;;;5091380;28;20527;-83
2021/05/02 08:16:06;;;;;;;16.30;3.50;;;9.40;18.60;;;;;;5055587;28;20480;-82
2021/05/02 08:19:01;;;;;;;12.43;2.67;;;9.00;19.90;;;;;;5083634;28;20463;-82
2021/05/02 08:21:39;;;;;;;9.80;2.30;;;8.70;19.70;;;;;;5070746;28;20476;-82
2021/05/02 08:24:28;;;;;;;10.73;2.63;;;9.00;22.80;;;;;;5072454;28;20532;-82
2021/05/02 08:27:21;;;;;;;;;;;;;;;;;;;;;
2021/05/02 08:33:08;;;;;;;11.63;2.77;;;9.30;17.10;;;;;;5092918;28;20973;-82
2021/05/02 08:35:59;;;;;;;10.73;2.80;;;9.30;17.40;;;;;;5093509;28;20451;-81
2021/05/02 08:41:43;;;;;;;20.85;3.80;;;11.30;9.30;;;;;;4989567;28;20499;-83
2021/05/02 08:44:26;;;;;;;;;;;;;;;;;;;;;
2021/05/02 08:47:35;;;;;;;;;;;;;;;;;;;;;
2021/05/02 08:53:48;;;;;;;15.37;3.43;;;10.80;5.60;;;;;;5066433;28;20444;-83
2021/05/02 08:57:26;;;;;;;;;;;;;;;;;;;;;
2021/05/02 09:00:27;;;;;;;13.17;2.97;;;9.70;9.70;;;;;;5082667;28;20444;-83
2021/05/02 09:06:48;;;;;;;;;;;;;;;;;;;;;
2021/05/02 09:19:24;;;;;;;13.17;2.80;;;10.30;4.20;;;;;;4847608;29;20455;-83
2021/05/02 09:23:04;;;;;;;;;;;;;;;;;;;;;
2021/05/02 09:26:11;;;;;;;;;;;;;;;;;;;;;
2021/05/02 09:43:23;;;;;;;;;;;;;;;;;;;;;
2021/05/02 09:46:40;;;;;;;14.03;2.17;;;12.20;1.00;;;;;;4977188;28;20543;-83
2021/05/02 09:49:53;;;;;;;12.40;1.50;;;11.10;1.00;;;;;;5092730;28;20465;-82
2021/05/02 10:21:56;;;;;;;;;;;;;;;;;;;;;
2021/05/02 10:54:25;;;;;;;11.67;1.60;;;11.30;1.00;;;;;;4903856;29;20486;-84
2021/05/02 10:57:17;;;;;;;11.60;2.73;;;10.80;1.00;;;;;;4915606;29;20521;-83
2021/05/02 11:03:16;;;;;;;10.33;1.50;;;10.50;1.00;;;;;;4886277;29;20446;-83
2021/05/02 11:05:55;;;;;;;13.53;2.23;;;10.70;1.00;;;;;;4903438;29;20461;-83
2021/05/02 11:35:14;;;;;;;11.03;1.60;;;11.90;1.00;;;;;;4893639;29;20502;-83
2021/05/02 11:41:14;;;;;;;11.77;1.20;;;14.10;1.00;;;;;;4992000;28;20481;-84
2021/05/02 11:47:37;;;;;;;14.70;1.47;;;13.10;1.00;;;;;;4953170;29;20479;-84
2021/05/02 11:54:00;;;;;;;14.40;1.50;;;13.00;1.00;;;;;;4877512;29;20456;-84
2021/05/02 12:13:07;;;;;;;11.50;1.80;;;11.00;1.00;;;;;;4932065;29;20496;-83
2021/05/02 12:19:09;;;;;;;10.70;1.53;;;10.50;1.00;;;;;;4929251;28;20469;-84
2021/05/02 12:22:06;;;;;;;10.97;1.90;;;10.50;1.00;;;;;;4971424;28;20578;-84
2021/05/02 12:24:58;;;;;;;10.27;1.70;;;10.60;1.00;;;;;;4971394;28;20454;-83
2021/05/02 12:28:19;;;;;;;;;;;;;;;;;;;;;
2021/05/02 12:31:32;;;;;;;;;;;;;;;;;;;;;
2021/05/02 12:34:26;;;;;;;10.00;1.30;;;11.40;1.00;;;;;;4914839;29;20496;-85
2021/05/02 12:37:17;;;;;;;12.10;1.50;;;12.20;1.00;;;;;;4927642;29;20499;-83
2021/05/02 12:39:51;;;;;;;11.40;1.63;;;12.80;1.00;;;;;;4933091;29;20464;-84
2021/05/02 12:43:19;;;;;;;;;;;;;;;;;;;;;
2021/05/02 12:49:39;;;;;;;12.90;1.30;;;12.70;1.00;;;;;;4944568;29;20464;-85
2021/05/02 12:52:32;;;;;;;13.23;1.63;;;12.40;1.00;;;;;;5044478;28;20542;-84
2021/05/02 12:55:44;;;;;;;14.67;1.63;;;11.60;1.00;;;;;;5023218;28;20436;-84
2021/05/02 13:01:03;;;;;;;12.20;1.50;;;11.10;1.00;;;;;;5049473;28;20935;-84
2021/05/02 13:03:34;;;;;;;11.90;1.80;;;10.80;1.00;;;;;;5052961;28;20459;-85
2021/05/02 13:06:05;;;;;;;11.53;1.70;;;10.50;1.00;;;;;;5053111;28;20809;-84
2021/05/02 13:08:55;;;;;;;11.40;2.00;;;10.50;1.00;;;;;;5052926;28;20447;-84
2021/05/02 13:11:34;;;;;;;10.63;1.97;;;10.40;1.00;;;;;;5052029;28;20465;-83
2021/05/02 13:14:33;;;;;;;10.70;2.03;;;10.20;3.90;;;;;;5052352;28;20455;-84
2021/05/02 13:17:28;;;;;;;11.70;2.13;;;10.20;1.00;;;;;;5053126;28;20972;-84
2021/05/02 13:20:07;;;;;;;11.10;1.90;;;10.40;1.00;;;;;;5051915;28;20477;-83
2021/05/02 13:22:58;;;;;;;13.23;2.40;;;10.60;1.00;;;;;;5052750;28;20475;-83
2021/05/02 13:25:26;;;;;;;11.50;2.17;;;10.80;1.00;;;;;;5053085;28;20447;-83
2021/05/02 13:28:28;;;;;;;9.83;1.90;;;11.10;1.00;;;;;;5051842;28;20620;-84
2021/05/02 13:31:36;;;;;;;11.47;2.20;;;11.30;1.00;;;;;;5010478;28;20456;-83
2021/05/02 13:34:08;;;;;;;11.10;2.00;;;11.80;1.00;;;;;;5028882;28;20453;-84
2021/05/02 13:37:16;;;;;;;11.90;2.50;;;12.30;1.00;;;;;;5037775;28;20471;-84
2021/05/02 13:40:14;;;;;;;12.67;2.27;;;12.40;1.00;;;;;;5035565;28;20822;-84
2021/05/02 13:46:44;;;;;;;12.37;2.40;;;12.60;1.00;;;;;;4983621;28;20416;-83
2021/05/02 13:50:07;;;;;;;13.60;2.00;;;13.20;1.00;;;;;;4857634;29;20516;-84
2021/05/02 14:02:01;;;;;;;;;;;;;;;;;;;;;
2021/05/02 14:05:06;;;;;;;16.23;1.90;;;15.20;1.00;;;;;;4911303;29;20453;-84
2021/05/02 14:07:33;;;;;;;16.77;1.70;;;15.10;1.00;;;;;;4908788;29;20829;-81
2021/05/02 14:13:19;;;;;;;16.70;2.40;;;13.60;1.00;;;;;;4947936;28;20474;-85
2021/05/02 14:16:08;;;;;;;20.10;2.23;;;13.10;1.00;;;;;;5025837;28;20471;-84
2021/05/02 14:21:35;;;;;;;15.40;2.00;;;12.60;1.00;;;;;;5049926;28;20863;-85
2021/05/02 14:24:53;;;;;;;13.90;1.80;;;13.10;1.00;;;;;;5051290;28;20490;-83
2021/05/02 14:27:31;;;;;;;13.40;2.20;;;12.90;1.00;;;;;;4930736;29;20573;-84
2021/05/02 14:30:20;;;;;;;17.43;1.93;;;13.60;1.00;;;;;;5050845;28;20957;-84
2021/05/02 14:32:53;;;;;;;14.47;2.27;;;13.70;1.00;;;;;;5038411;28;20459;-83
2021/05/02 14:35:31;;;;;;;20.87;2.40;;;13.70;1.00;;;;;;5050826;28;20452;-84
2021/05/02 14:38:14;;;;;;;17.33;2.70;;;13.80;1.00;;;;;;5050978;28;20482;-82
2021/05/02 14:41:15;;;;;;;13.87;2.20;;;14.10;1.00;;;;;;5050660;28;20459;-84
2021/05/02 14:44:23;;;;;;;15.17;2.57;;;13.80;1.00;;;;;;4951867;28;20451;-84
2021/05/02 14:50:21;;;;;;;14.47;2.80;;;12.90;1.00;;;;;;4974624;28;20829;-85
2021/05/02 14:53:14;;;;;;;18.00;2.17;;;12.90;1.00;;;;;;5011317;28;20445;-83
2021/05/02 14:55:52;;;;;;;14.67;3.13;;;12.60;1.00;;;;;;4989394;28;20449;-84
2021/05/02 15:07:38;;;;;;;14.60;2.07;;;13.60;1.00;;;;;;4969979;28;20870;-84
2021/05/02 15:10:24;;;;;;;14.73;2.20;;;12.70;1.00;;;;;;5003326;28;20528;-84
2021/05/02 15:16:45;;;;;;;16.90;1.90;;;13.10;1.00;;;;;;5047242;28;20487;-83
2021/05/02 15:25:26;;;;;;;16.30;2.50;;;12.40;1.00;;;;;;5052815;28;20553;-83
2021/05/02 15:28:32;;;;;;;13.87;2.50;;;12.20;1.00;;;;;;5053210;28;20452;-83
2021/05/02 15:34:37;;;;;;;13.63;2.30;;;12.00;1.00;;;;;;4979574;28;21122;-83
2021/05/02 15:40:03;;;;;;;13.00;2.30;;;12.60;1.00;;;;;;5011056;28;20448;-84
2021/05/02 15:43:17;;;;;;;;;;;;;;;;;;;;;
2021/05/02 15:45:59;;;;;;;11.87;1.10;;;13.50;1.00;;;;;;5050868;28;20935;-84
2021/05/02 15:49:15;;;;;;;;;;;;;;;;;;;;;
2021/05/02 15:52:04;;;;;;;14.50;1.70;;;14.90;1.00;;;;;;4934734;29;20473;-84
2021/05/02 15:54:58;;;;;;;15.83;2.03;;;14.60;1.00;;;;;;5042517;28;20783;-84
2021/05/02 15:57:37;;;;;;;;;;;;;;;;;;;;;
2021/05/02 16:00:08;;;;;;;15.17;1.37;;;13.90;1.00;;;;;;5027465;28;20969;-83
2021/05/02 16:06:24;;;;;;;;;;;;;;;;;;;;;
2021/05/02 16:19:35;;;;;;;12.40;1.80;;;13.20;1.00;;;;;;5051436;28;20456;-83
2021/05/02 16:22:15;;;;;;;12.80;1.67;;;13.80;1.00;;;;;;4967017;28;20490;-83
2021/05/02 16:25:35;;;;;;;14.93;2.07;;;14.10;1.00;;;;;;5041182;28;20965;-85
2021/05/02 16:28:42;;;;;;;15.00;2.03;;;13.40;1.00;;;;;;4964834;28;20482;-83
2021/05/02 16:31:47;;;;;;;13.80;2.17;;;12.60;1.00;;;;;;4969923;28;20552;-84
2021/05/02 16:37:41;;;;;;;13.00;2.00;;;11.90;1.00;;;;;;4974540;28;20468;-84
2021/05/02 16:43:32;;;;;;;14.00;1.80;;;11.40;1.00;;;;;;4942207;29;20440;-83
2021/05/02 16:49:44;;;;;;;11.67;1.87;;;11.10;1.00;;;;;;4951738;29;20597;-84
2021/05/02 16:59:24;;;;;;;11.63;2.03;;;11.00;1.00;;;;;;4966848;28;20546;-84
2021/05/02 17:05:40;;;;;;;11.60;2.50;;;11.10;1.00;;;;;;4940990;28;20457;-84
2021/05/02 17:12:20;;;;;;;12.33;2.40;;;11.50;1.00;;;;;;4815956;29;20466;-84
2021/05/02 17:15:25;;;;;;;10.60;1.93;;;11.90;1.00;;;;;;4801823;29;20475;-83
2021/05/02 17:17:58;;;;;;;12.27;2.47;;;13.00;1.00;;;;;;4934040;29;21111;-81
2021/05/02 17:30:30;;;;;;;11.90;1.60;;;12.30;1.00;;;;;;4957133;28;20995;-82
2021/05/02 17:33:37;;;;;;;15.63;2.60;;;11.60;1.00;;;;;;4963860;28;20966;-84
2021/05/02 17:36:30;;;;;;;12.23;1.60;;;11.00;1.00;;;;;;5006963;28;20890;-84
2021/05/02 17:38:58;;;;;;;13.13;1.80;;;10.70;1.00;;;;;;5019753;28;20450;-83
2021/05/02 17:41:39;;;;;;;11.10;1.77;;;10.60;1.00;;;;;;5051682;28;20490;-84
2021/05/02 17:44:47;;;;;;;16.23;2.37;;;10.30;1.00;;;;;;5052525;28;20452;-82
2021/05/02 17:47:26;;;;;;;10.40;2.10;;;10.00;1.00;;;;;;5052424;28;20449;-83
2021/05/02 17:53:09;;;;;;;10.40;2.83;;;10.90;1.00;;;;;;5010176;28;20448;-83
2021/05/02 17:55:58;;;;;;;9.70;2.07;;;11.70;1.00;;;;;;5010639;28;20964;-82
2021/05/02 17:58:42;;;;;;;9.57;1.57;;;10.90;1.00;;;;;;4990086;28;20511;-83
2021/05/02 18:01:10;;;;;;;10.10;2.10;;;10.50;1.00;;;;;;5003062;28;20503;-84
2021/05/02 18:03:52;;;;;;;16.03;2.30;;;10.30;1.00;;;;;;5052531;28;20456;-83
2021/05/02 18:06:23;;;;;;;10.70;2.20;;;10.20;1.00;;;;;;5052533;28;20455;-83
2021/05/02 18:15:34;;;;;;;11.23;2.20;;;9.80;1.00;;;;;;4978093;28;20454;-83
2021/05/02 18:18:05;;;;;;;9.20;1.60;;;9.90;1.00;;;;;;4991452;28;20485;-84
2021/05/02 18:20:56;;;;;;;13.33;2.10;;;9.90;1.00;;;;;;4994296;28;21056;-82
2021/05/02 18:24:03;;;;;;;;;;;;;;;;;;;;;
2021/05/02 18:26:54;;;;;;;9.60;1.93;;;9.70;1.00;;;;;;4974109;28;20458;-83
2021/05/02 18:29:22;;;;;;;9.20;1.80;;;9.70;1.00;;;;;;4979463;28;20549;-82
2021/05/02 18:31:52;;;;;;;8.70;1.80;;;9.70;1.00;;;;;;5019953;28;20897;-82
2021/05/02 18:34:32;;;;;;;9.30;1.97;;;9.60;1.00;;;;;;5045065;28;20484;-83
2021/05/02 18:37:04;;;;;;;10.70;2.33;;;9.40;1.00;;;;;;5055844;28;20475;-83
2021/05/02 18:39:40;;;;;;;9.10;2.00;;;9.20;1.00;;;;;;5055430;28;20447;-82
2021/05/02 18:42:45;;;;;;;9.10;2.00;;;9.20;1.00;;;;;;5054249;28;20492;-83
2021/05/02 18:45:36;;;;;;;7.83;1.30;;;9.10;1.00;;;;;;4994148;28;20449;-83
2021/05/02 18:48:14;;;;;;;8.47;1.70;;;8.90;2.80;;;;;;4988324;28;20455;-83
2021/05/02 18:50:46;;;;;;;15.83;2.43;;;8.70;4.70;;;;;;4999416;28;20446;-83
2021/05/02 18:53:27;;;;;;;11.00;2.20;;;8.50;5.90;;;;;;5008151;28;20465;-83
2021/05/02 18:56:15;;;;;;;;;;;;;;;;;;;;;
2021/05/02 18:59:15;;;;;;;;;;;;;;;;;;;;;
2021/05/02 19:04:47;;;;;;;10.90;2.73;;;7.50;12.50;;;;;;4976748;28;20448;-83
2021/05/02 19:07:35;;;;;;;8.30;2.20;;;7.40;14.10;;;;;;5000370;28;20449;-83
2021/05/02 19:10:55;;;;;;;9.90;3.33;;;7.20;14.50;;;;;;5005955;28;20860;-83
2021/05/02 19:13:32;;;;;;;8.30;2.63;;;7.00;15.70;;;;;;4808692;29;20557;-83
2021/05/02 19:16:31;;;;;;;8.33;1.70;;;6.70;18.40;;;;;;4954451;28;20538;-83
2021/05/02 19:28:38;;;;;;;8.47;2.80;;;6.20;25.20;;;;;;5053749;28;20947;-83
2021/05/02 19:35:01;;;;;;;;;;;;;;;;;;;;;
2021/05/02 19:38:03;;;;;;;;;;;;;;;;;;;;;
2021/05/02 19:41:35;;;;;;;;;;;;;;;;;;;;;
2021/05/02 19:44:08;;;;;;;8.37;3.40;;;5.20;46.20;;;;;;4933200;28;20454;-83
2021/05/02 19:46:44;;;;;;;8.00;2.67;;;5.20;49.40;;;;;;4973788;28;20455;-83
2021/05/02 20:02:49;;;;;;;8.20;2.10;;;5.30;49.80;;;;;;4814941;29;20450;-82
2021/05/02 20:23:17;;;;;;;6.77;1.87;;;4.90;51.70;;;;;;4807187;29;20521;-83
2021/05/02 20:26:27;;;;;;;;;;;;;;;;;;;;;
2021/05/02 20:29:38;;;;;;;;;;;;;;;;;;;;;
2021/05/02 20:39:43;;;;;;;7.00;2.10;;;4.60;55.10;;;;;;4914439;29;20478;-84
2021/05/02 20:42:44;;;;;;;;;;;;;;;;;;;;;
2021/05/02 20:46:00;;;;;;;9.47;2.27;;;4.20;60.50;;;;;;4989818;28;20454;-84
2021/05/02 20:49:00;;;;;;;;;;;;;;;;;;;;;
2021/05/02 20:52:21;;;;;;;8.77;2.80;;;4.10;67.10;;;;;;5010427;28;21038;-83
2021/05/02 20:58:46;;;;;;;;;;;;;;;;;;;;;
2021/05/02 21:11:57;;;;;;;;;;;;;;;;;;;;;
2021/05/02 21:15:19;;;;;;;;;;;;;;;;;;;;;
2021/05/02 21:31:35;;;;;;;;;;;;;;;;;;;;;
2021/05/02 21:47:34;;;;;;;55.00;4.17;;;3.60;79.70;;;;;;4837144;29;20539;-83
2021/05/02 21:50:37;;;;;;;;;;;;;;;;;;;;;
2021/05/02 21:59:27;;;;;;;;;;;;;;;;;;;;;
2021/05/02 22:24:27;;;;;;;8.67;3.07;;;3.30;76.50;;;;;;4983602;28;20527;-83
2021/05/02 22:30:32;;;;;;;10.07;3.20;;;3.10;87.30;;;;;;4950796;28;20457;-83
2021/05/02 22:46:56;;;;;;;;;;;;;;;;;;;;;
2021/05/02 22:59:47;;;;;;;;;;;;;;;;;;;;;
2021/05/02 23:09:26;;;;;;;8.17;4.20;;;2.70;99.90;;;;;;4878933;29;20499;-83
2021/05/02 23:12:33;;;;;;;;;;;;;;;;;;;;;
2021/05/02 23:15:56;;;;;;;;;;;;;;;;;;;;;
2021/05/02 23:22:29;;;;;;;8.70;4.37;;;2.30;99.90;;;;;;5044464;28;20217;-83
2021/05/02 23:28:46;;;;;;;8.90;5.43;;;2.20;99.90;;;;;;5034132;28;20502;-83
2021/05/02 23:35:14;;;;;;;8.00;5.63;;;2.20;99.90;;;;;;5011693;28;20473;-83
2021/05/02 23:38:05;;;;;;;;;;;;;;;;;;;;;
2021/05/02 23:41:36;;;;;;;;;;;;;;;;;;;;;
2021/05/02 23:44:24;;;;;;;8.67;5.73;;;2.30;99.90;;;;;;5000982;28;20201;-83
2021/05/02 23:47:03;;;;;;;8.90;6.13;;;2.20;99.90;;;;;;4918079;29;20446;-83
2021/05/02 23:50:00;;;;;;;7.30;5.93;;;2.20;99.90;;;;;;4961107;28;20459;-83
2021/05/02 23:52:33;;;;;;;8.00;6.43;;;2.20;99.90;;;;;;4962918;28;20455;-83
2021/05/02 23:58:33;;;;;;;9.50;6.23;;;2.50;99.90;;;;;;4953106;28;20226;-83
